FDX670 EGPB-EGLC
Flight info
| Callsign | FDX670 |
|---|---|
| Flight time | 1h 35m |
| Altitude | 35000 |
| Route | TIRIK BUDON BEVAM LEGRO XAMAN XAMA1C |
| Aircraft | B738/M-VGDW/C |
Departure
| Time | 2026-05-07 21:00 |
|---|---|
| Airport | Sumburgh Airport (EGPB) |
Arrival
| Time | 2026-05-07 22:35 |
|---|---|
| Airport | London City Airport (EGLC) |
| Time | Latitude | Longitude | Altitude | Speed | Heading |
|---|---|---|---|---|---|
| 2026-05-07 20:45 | 59.87733 | -1.29087 | 43 ft | 0 kts | 84° |
| 2026-05-07 20:50 | 59.87731 | -1.29112 | 40 ft | 3 kts | 62° |
| 2026-05-07 20:50 | 59.87719 | -1.29142 | 40 ft | 3 kts | 30° |
| 2026-05-07 20:50 | 59.87717 | -1.29144 | 39 ft | 0 kts | 26° |
| 2026-05-07 20:53 | 59.87741 | -1.29163 | 41 ft | 7 kts | 328° |
| 2026-05-07 20:53 | 59.87791 | -1.29230 | 43 ft | 9 kts | 324° |
| 2026-05-07 20:54 | 59.87845 | -1.29315 | 43 ft | 10 kts | 322° |
| 2026-05-07 20:54 | 59.87906 | -1.29409 | 41 ft | 11 kts | 312° |
| 2026-05-07 20:54 | 59.87880 | -1.29542 | 43 ft | 11 kts | 246° |
| 2026-05-07 20:54 | 59.87920 | -1.29669 | 43 ft | 12 kts | 322° |
| 2026-05-07 20:55 | 59.87992 | -1.29765 | 42 ft | 14 kts | 327° |
| 2026-05-07 20:55 | 59.88066 | -1.29879 | 45 ft | 12 kts | 323° |
| 2026-05-07 20:55 | 59.88131 | -1.29981 | 46 ft | 12 kts | 312° |
| 2026-05-07 20:55 | 59.88161 | -1.30030 | 46 ft | 1 kts | 36° |
| 2026-05-07 20:56 | 59.88156 | -1.30011 | 44 ft | 4 kts | 114° |
| 2026-05-07 20:56 | 59.88147 | -1.29994 | 46 ft | 0 kts | 142° |
| 2026-05-07 20:59 | 59.88141 | -1.29985 | 46 ft | 12 kts | 142° |
| 2026-05-07 20:59 | 59.87855 | -1.29561 | 43 ft | 88 kts | 142° |
| 2026-05-07 20:59 | 59.87201 | -1.28623 | 212 ft | 131 kts | 150° |
| 2026-05-07 21:00 | 59.86456 | -1.27544 | 1124 ft | 130 kts | 148° |
| 2026-05-07 21:00 | 59.85673 | -1.26750 | 2091 ft | 129 kts | 168° |
| 2026-05-07 21:00 | 59.84744 | -1.26367 | 2713 ft | 147 kts | 174° |
| 2026-05-07 21:00 | 59.83633 | -1.26061 | 3217 ft | 172 kts | 175° |
| 2026-05-07 21:01 | 59.82401 | -1.25790 | 4161 ft | 176 kts | 177° |
| 2026-05-07 21:01 | 59.81279 | -1.25592 | 5702 ft | 146 kts | 179° |
| 2026-05-07 21:01 | 59.80338 | -1.25425 | 6889 ft | 136 kts | 180° |
| 2026-05-07 21:01 | 59.79288 | -1.25253 | 7259 ft | 167 kts | 179° |
| 2026-05-07 21:02 | 59.78183 | -1.25045 | 8487 ft | 137 kts | 179° |
| 2026-05-07 21:02 | 59.77333 | -1.24869 | 9638 ft | 125 kts | 180° |
| 2026-05-07 21:02 | 59.76270 | -1.24716 | 9436 ft | 186 kts | 179° |
| 2026-05-07 21:02 | 59.74833 | -1.24470 | 9742 ft | 220 kts | 177° |
| 2026-05-07 21:03 | 59.73285 | -1.24137 | 10523 ft | 230 kts | 177° |
| 2026-05-07 21:03 | 59.71638 | -1.23794 | 11136 ft | 246 kts | 178° |
| 2026-05-07 21:03 | 59.69878 | -1.23449 | 11716 ft | 262 kts | 178° |
| 2026-05-07 21:03 | 59.68002 | -1.23094 | 12273 ft | 279 kts | 178° |
| 2026-05-07 21:04 | 59.66008 | -1.22718 | 12825 ft | 296 kts | 178° |
| 2026-05-07 21:04 | 59.63892 | -1.22315 | 13405 ft | 311 kts | 178° |
| 2026-05-07 21:04 | 59.61716 | -1.21896 | 14172 ft | 317 kts | 178° |
| 2026-05-07 21:04 | 59.59506 | -1.21468 | 14973 ft | 321 kts | 178° |
| 2026-05-07 21:05 | 59.57265 | -1.21038 | 15787 ft | 326 kts | 178° |
| 2026-05-07 21:05 | 59.55763 | -1.20753 | 16328 ft | 328 kts | 178° |
| 2026-05-07 21:05 | 59.53476 | -1.20236 | 17162 ft | 334 kts | 174° |
| 2026-05-07 21:05 | 59.51171 | -1.19422 | 18003 ft | 339 kts | 174° |
| 2026-05-07 21:06 | 59.48849 | -1.18570 | 18732 ft | 343 kts | 174° |
| 2026-05-07 21:06 | 59.46484 | -1.17687 | 19456 ft | 346 kts | 174° |
| 2026-05-07 21:06 | 59.44098 | -1.16799 | 20189 ft | 349 kts | 174° |
| 2026-05-07 21:06 | 59.41705 | -1.15920 | 20906 ft | 352 kts | 174° |
| 2026-05-07 21:07 | 59.39284 | -1.15038 | 21611 ft | 355 kts | 174° |
| 2026-05-07 21:07 | 59.36839 | -1.14149 | 22299 ft | 358 kts | 174° |
| 2026-05-07 21:07 | 59.34376 | -1.13253 | 22972 ft | 361 kts | 174° |
| 2026-05-07 21:07 | 59.31893 | -1.12348 | 23612 ft | 365 kts | 174° |
| 2026-05-07 21:08 | 59.29388 | -1.11436 | 24157 ft | 368 kts | 174° |
| 2026-05-07 21:08 | 59.26845 | -1.10514 | 24453 ft | 377 kts | 174° |
| 2026-05-07 21:08 | 59.24215 | -1.09568 | 24561 ft | 391 kts | 174° |
| 2026-05-07 21:08 | 59.21495 | -1.08588 | 24632 ft | 404 kts | 173° |
| 2026-05-07 21:09 | 59.18692 | -1.07575 | 24693 ft | 415 kts | 173° |
| 2026-05-07 21:09 | 59.15831 | -1.06536 | 24919 ft | 421 kts | 173° |
| 2026-05-07 21:09 | 59.12944 | -1.05488 | 25240 ft | 423 kts | 173° |
| 2026-05-07 21:09 | 59.10035 | -1.04439 | 25574 ft | 425 kts | 173° |
| 2026-05-07 21:10 | 59.07117 | -1.03393 | 25915 ft | 427 kts | 173° |
| 2026-05-07 21:10 | 59.04187 | -1.02346 | 26246 ft | 429 kts | 173° |
| 2026-05-07 21:10 | 59.01246 | -1.01296 | 26577 ft | 431 kts | 173° |
| 2026-05-07 21:10 | 58.98290 | -1.00241 | 26887 ft | 433 kts | 173° |
| 2026-05-07 21:11 | 58.95323 | -0.99182 | 27193 ft | 434 kts | 173° |
| 2026-05-07 21:11 | 58.92344 | -0.98122 | 27490 ft | 436 kts | 173° |
| 2026-05-07 21:11 | 58.86356 | -0.95996 | 28164 ft | 437 kts | 173° |
| 2026-05-07 21:12 | 58.83369 | -0.94938 | 28540 ft | 436 kts | 173° |
| 2026-05-07 21:12 | 58.80421 | -0.93896 | 28900 ft | 435 kts | 173° |
| 2026-05-07 21:12 | 58.77446 | -0.92847 | 29278 ft | 434 kts | 173° |
| 2026-05-07 21:12 | 58.74479 | -0.91803 | 29656 ft | 433 kts | 173° |
| 2026-05-07 21:13 | 58.71518 | -0.90763 | 30036 ft | 432 kts | 173° |
| 2026-05-07 21:13 | 58.68564 | -0.89727 | 30362 ft | 431 kts | 173° |
| 2026-05-07 21:13 | 58.65613 | -0.88693 | 30690 ft | 429 kts | 173° |
| 2026-05-07 21:13 | 58.62671 | -0.87664 | 31026 ft | 428 kts | 173° |
| 2026-05-07 21:14 | 58.59744 | -0.86642 | 31362 ft | 427 kts | 173° |
| 2026-05-07 21:14 | 58.56827 | -0.85626 | 31697 ft | 425 kts | 173° |
| 2026-05-07 21:14 | 58.53919 | -0.84615 | 32040 ft | 424 kts | 173° |
| 2026-05-07 21:14 | 58.51020 | -0.83608 | 32374 ft | 423 kts | 173° |
| 2026-05-07 21:15 | 58.48131 | -0.82607 | 32721 ft | 421 kts | 173° |
| 2026-05-07 21:15 | 58.45251 | -0.81610 | 33065 ft | 420 kts | 173° |
| 2026-05-07 21:15 | 58.42380 | -0.80618 | 33405 ft | 419 kts | 173° |
| 2026-05-07 21:15 | 58.39519 | -0.79631 | 33752 ft | 417 kts | 173° |
| 2026-05-07 21:16 | 58.36666 | -0.78649 | 34069 ft | 416 kts | 173° |
| 2026-05-07 21:16 | 58.33818 | -0.77670 | 34326 ft | 416 kts | 173° |
| 2026-05-07 21:16 | 58.30965 | -0.76692 | 34561 ft | 417 kts | 173° |
| 2026-05-07 21:16 | 58.28099 | -0.75711 | 34795 ft | 418 kts | 173° |
| 2026-05-07 21:17 | 58.25230 | -0.74730 | 34955 ft | 420 kts | 173° |
| 2026-05-07 21:17 | 58.22380 | -0.73757 | 34972 ft | 423 kts | 173° |
| 2026-05-07 21:17 | 58.16582 | -0.71779 | 34974 ft | 423 kts | 173° |
| 2026-05-07 21:18 | 58.10798 | -0.69813 | 34975 ft | 421 kts | 173° |
| 2026-05-07 21:18 | 58.05049 | -0.67868 | 34978 ft | 419 kts | 173° |
| 2026-05-07 21:19 | 57.99313 | -0.65934 | 34982 ft | 418 kts | 173° |
| 2026-05-07 21:19 | 57.93582 | -0.64007 | 34985 ft | 419 kts | 173° |
| 2026-05-07 21:20 | 57.87844 | -0.62084 | 34986 ft | 419 kts | 173° |
| 2026-05-07 21:20 | 57.82100 | -0.60164 | 34991 ft | 419 kts | 173° |
| 2026-05-07 21:21 | 57.76355 | -0.58252 | 34994 ft | 419 kts | 173° |
| 2026-05-07 21:21 | 57.70609 | -0.56345 | 34996 ft | 419 kts | 173° |
| 2026-05-07 21:22 | 57.64933 | -0.54079 | 34997 ft | 420 kts | 169° |
| 2026-05-07 21:22 | 57.59255 | -0.51400 | 34998 ft | 420 kts | 169° |
| 2026-05-07 21:23 | 57.53561 | -0.48980 | 34999 ft | 419 kts | 170° |
| 2026-05-07 21:23 | 57.47867 | -0.46575 | 35006 ft | 420 kts | 169° |
| 2026-05-07 21:24 | 57.42178 | -0.44099 | 35009 ft | 420 kts | 169° |
| 2026-05-07 21:24 | 57.36482 | -0.41663 | 35008 ft | 420 kts | 169° |
| 2026-05-07 21:25 | 57.30785 | -0.39243 | 35009 ft | 420 kts | 169° |
| 2026-05-07 21:25 | 57.25088 | -0.36816 | 35015 ft | 420 kts | 169° |
| 2026-05-07 21:26 | 57.19376 | -0.34394 | 35017 ft | 420 kts | 169° |
| 2026-05-07 21:26 | 57.13678 | -0.31989 | 35016 ft | 421 kts | 169° |
| 2026-05-07 21:27 | 57.07966 | -0.29583 | 35017 ft | 421 kts | 169° |
| 2026-05-07 21:27 | 57.02248 | -0.27183 | 35020 ft | 421 kts | 169° |
| 2026-05-07 21:28 | 56.96533 | -0.24791 | 35024 ft | 421 kts | 169° |
| 2026-05-07 21:28 | 56.90809 | -0.22403 | 35024 ft | 421 kts | 169° |
| 2026-05-07 21:29 | 56.85127 | -0.20040 | 35032 ft | 422 kts | 169° |
| 2026-05-07 21:29 | 56.79366 | -0.17652 | 35030 ft | 422 kts | 169° |
| 2026-05-07 21:30 | 56.73679 | -0.15302 | 35030 ft | 422 kts | 169° |
| 2026-05-07 21:30 | 56.67944 | -0.12939 | 35034 ft | 422 kts | 169° |
| 2026-05-07 21:31 | 56.62213 | -0.10585 | 35038 ft | 422 kts | 169° |
| 2026-05-07 21:31 | 56.56475 | -0.08236 | 35034 ft | 422 kts | 169° |
| 2026-05-07 21:32 | 56.50742 | -0.05896 | 35042 ft | 422 kts | 169° |
| 2026-05-07 21:32 | 56.44999 | -0.03560 | 35039 ft | 422 kts | 169° |
| 2026-05-07 21:33 | 56.39261 | -0.01232 | 35045 ft | 423 kts | 168° |
| 2026-05-07 21:33 | 56.33521 | 0.01089 | 35041 ft | 423 kts | 168° |
| 2026-05-07 21:34 | 56.27782 | 0.03403 | 35046 ft | 423 kts | 168° |
| 2026-05-07 21:34 | 56.22032 | 0.05714 | 35050 ft | 423 kts | 168° |
| 2026-05-07 21:35 | 56.16274 | 0.08020 | 35054 ft | 423 kts | 168° |
| 2026-05-07 21:35 | 56.10520 | 0.10319 | 35059 ft | 424 kts | 168° |
| 2026-05-07 21:36 | 56.04755 | 0.12614 | 35060 ft | 424 kts | 168° |
| 2026-05-07 21:36 | 55.99027 | 0.14888 | 35062 ft | 424 kts | 168° |
| 2026-05-07 21:37 | 55.93224 | 0.17185 | 35060 ft | 424 kts | 168° |
| 2026-05-07 21:37 | 55.87456 | 0.19461 | 35062 ft | 425 kts | 168° |
| 2026-05-07 21:38 | 55.81679 | 0.21733 | 35067 ft | 425 kts | 168° |
| 2026-05-07 21:38 | 55.75903 | 0.23997 | 35072 ft | 425 kts | 168° |
| 2026-05-07 21:39 | 55.70191 | 0.26717 | 35071 ft | 426 kts | 163° |
| 2026-05-07 21:39 | 55.64574 | 0.29837 | 35075 ft | 426 kts | 163° |
| 2026-05-07 21:40 | 55.58920 | 0.32995 | 35078 ft | 426 kts | 163° |
| 2026-05-07 21:40 | 55.53257 | 0.36120 | 35080 ft | 426 kts | 163° |
| 2026-05-07 21:41 | 55.47591 | 0.39242 | 35080 ft | 427 kts | 163° |
| 2026-05-07 21:41 | 55.41924 | 0.42362 | 35081 ft | 427 kts | 163° |
| 2026-05-07 21:42 | 55.36246 | 0.45474 | 35085 ft | 427 kts | 163° |
| 2026-05-07 21:42 | 55.30564 | 0.48578 | 35085 ft | 428 kts | 163° |
| 2026-05-07 21:43 | 55.24872 | 0.51681 | 35101 ft | 428 kts | 163° |
| 2026-05-07 21:43 | 55.20132 | 0.54257 | 35091 ft | 428 kts | 163° |
| 2026-05-07 21:44 | 55.14437 | 0.57343 | 35089 ft | 429 kts | 163° |
| 2026-05-07 21:44 | 55.08732 | 0.60426 | 35094 ft | 429 kts | 163° |
| 2026-05-07 21:45 | 55.03027 | 0.63499 | 35099 ft | 429 kts | 163° |
| 2026-05-07 21:45 | 54.97349 | 0.66548 | 35098 ft | 430 kts | 163° |
| 2026-05-07 21:46 | 54.91628 | 0.69612 | 35099 ft | 430 kts | 163° |
| 2026-05-07 21:46 | 54.85903 | 0.72669 | 35095 ft | 430 kts | 163° |
| 2026-05-07 21:47 | 54.80166 | 0.75723 | 35108 ft | 431 kts | 163° |
| 2026-05-07 21:47 | 54.74380 | 0.78794 | 35103 ft | 432 kts | 163° |
| 2026-05-07 21:48 | 54.68660 | 0.81821 | 35107 ft | 433 kts | 163° |
| 2026-05-07 21:48 | 54.62891 | 0.84865 | 35105 ft | 434 kts | 163° |
| 2026-05-07 21:49 | 54.57104 | 0.87909 | 35107 ft | 434 kts | 163° |
| 2026-05-07 21:49 | 54.51317 | 0.90944 | 35102 ft | 435 kts | 163° |
| 2026-05-07 21:50 | 54.45514 | 0.93978 | 35108 ft | 436 kts | 163° |
| 2026-05-07 21:50 | 54.39700 | 0.97010 | 35107 ft | 437 kts | 163° |
| 2026-05-07 21:51 | 54.33874 | 1.00038 | 35111 ft | 438 kts | 163° |
| 2026-05-07 21:51 | 54.28038 | 1.03063 | 35100 ft | 438 kts | 163° |
| 2026-05-07 21:52 | 54.22193 | 1.06083 | 35105 ft | 440 kts | 164° |
| 2026-05-07 21:52 | 54.16327 | 1.09106 | 35108 ft | 440 kts | 164° |
| 2026-05-07 21:53 | 54.10443 | 1.12128 | 35111 ft | 441 kts | 164° |
| 2026-05-07 21:53 | 54.04553 | 1.15145 | 35113 ft | 443 kts | 164° |
| 2026-05-07 21:54 | 53.98652 | 1.18159 | 35109 ft | 443 kts | 164° |
| 2026-05-07 21:54 | 53.92741 | 1.21168 | 35115 ft | 444 kts | 164° |
| 2026-05-07 21:55 | 53.86817 | 1.24175 | 35105 ft | 445 kts | 164° |
| 2026-05-07 21:55 | 53.80880 | 1.27181 | 35111 ft | 445 kts | 164° |
| 2026-05-07 21:56 | 53.74947 | 1.30174 | 35108 ft | 446 kts | 165° |
| 2026-05-07 21:56 | 53.69002 | 1.33166 | 35109 ft | 446 kts | 165° |
| 2026-05-07 21:57 | 53.63042 | 1.36156 | 35109 ft | 447 kts | 165° |
| 2026-05-07 21:57 | 53.57108 | 1.39124 | 35117 ft | 448 kts | 165° |
| 2026-05-07 21:58 | 53.51129 | 1.42106 | 35113 ft | 449 kts | 165° |
| 2026-05-07 21:58 | 53.45140 | 1.45084 | 35112 ft | 449 kts | 165° |
| 2026-05-07 21:59 | 53.39145 | 1.48056 | 35115 ft | 450 kts | 165° |
| 2026-05-07 21:59 | 53.33145 | 1.51021 | 35117 ft | 450 kts | 165° |
| 2026-05-07 22:00 | 53.27118 | 1.53938 | 35114 ft | 451 kts | 166° |
| 2026-05-07 22:00 | 53.21070 | 1.56784 | 35116 ft | 451 kts | 166° |
| 2026-05-07 22:01 | 53.15033 | 1.59660 | 35117 ft | 451 kts | 166° |
| 2026-05-07 22:01 | 53.08978 | 1.62538 | 35120 ft | 452 kts | 166° |
| 2026-05-07 22:02 | 53.02922 | 1.65394 | 35119 ft | 453 kts | 166° |
| 2026-05-07 22:02 | 52.96859 | 1.68251 | 35116 ft | 453 kts | 166° |
| 2026-05-07 22:03 | 52.90791 | 1.71103 | 35118 ft | 454 kts | 166° |
| 2026-05-07 22:03 | 52.84715 | 1.73948 | 35115 ft | 454 kts | 166° |
| 2026-05-07 22:04 | 52.78632 | 1.76788 | 35121 ft | 454 kts | 167° |
| 2026-05-07 22:04 | 52.75586 | 1.78208 | 34942 ft | 457 kts | 167° |
| 2026-05-07 22:04 | 52.72557 | 1.79618 | 34280 ft | 457 kts | 167° |
| 2026-05-07 22:05 | 52.69492 | 1.81042 | 33619 ft | 456 kts | 167° |
| 2026-05-07 22:05 | 52.66456 | 1.82452 | 32992 ft | 453 kts | 167° |
| 2026-05-07 22:05 | 52.63430 | 1.83855 | 32410 ft | 450 kts | 167° |
| 2026-05-07 22:05 | 52.60424 | 1.85246 | 31823 ft | 447 kts | 167° |
| 2026-05-07 22:06 | 52.57440 | 1.86624 | 31244 ft | 444 kts | 167° |
| 2026-05-07 22:06 | 52.54468 | 1.87995 | 30672 ft | 441 kts | 167° |
| 2026-05-07 22:06 | 52.51504 | 1.89330 | 29993 ft | 446 kts | 170° |
| 2026-05-07 22:06 | 52.48409 | 1.89747 | 29045 ft | 446 kts | 186° |
| 2026-05-07 22:07 | 52.45359 | 1.89006 | 28122 ft | 442 kts | 193° |
| 2026-05-07 22:07 | 52.42354 | 1.87965 | 27188 ft | 438 kts | 196° |
| 2026-05-07 22:07 | 52.39429 | 1.86702 | 26564 ft | 426 kts | 198° |
| 2026-05-07 22:07 | 52.36629 | 1.85430 | 26074 ft | 411 kts | 197° |
| 2026-05-07 22:08 | 52.33898 | 1.84275 | 25519 ft | 400 kts | 196° |
| 2026-05-07 22:08 | 52.31217 | 1.83237 | 24929 ft | 392 kts | 195° |
| 2026-05-07 22:08 | 52.28605 | 1.82257 | 24328 ft | 385 kts | 195° |
| 2026-05-07 22:08 | 52.26016 | 1.81262 | 23737 ft | 379 kts | 195° |
| 2026-05-07 22:09 | 52.23432 | 1.80234 | 23034 ft | 374 kts | 196° |
| 2026-05-07 22:09 | 52.20958 | 1.79238 | 22360 ft | 369 kts | 196° |
| 2026-05-07 22:09 | 52.18476 | 1.78246 | 21692 ft | 364 kts | 195° |
| 2026-05-07 22:09 | 52.16028 | 1.77281 | 21042 ft | 360 kts | 195° |
| 2026-05-07 22:10 | 52.13603 | 1.76332 | 20403 ft | 355 kts | 195° |
| 2026-05-07 22:10 | 52.11218 | 1.75398 | 19775 ft | 351 kts | 195° |
| 2026-05-07 22:10 | 52.08850 | 1.74468 | 19163 ft | 347 kts | 195° |
| 2026-05-07 22:10 | 52.06514 | 1.73550 | 18566 ft | 343 kts | 195° |
| 2026-05-07 22:11 | 52.04206 | 1.72644 | 17915 ft | 339 kts | 195° |
| 2026-05-07 22:11 | 52.01926 | 1.71750 | 17240 ft | 335 kts | 194° |
| 2026-05-07 22:11 | 51.99672 | 1.70869 | 16623 ft | 330 kts | 194° |
| 2026-05-07 22:11 | 51.97460 | 1.70005 | 16051 ft | 324 kts | 194° |
| 2026-05-07 22:12 | 51.95289 | 1.69158 | 15493 ft | 318 kts | 194° |
| 2026-05-07 22:12 | 51.93157 | 1.68326 | 14947 ft | 312 kts | 194° |
| 2026-05-07 22:12 | 51.91062 | 1.67510 | 14408 ft | 307 kts | 194° |
| 2026-05-07 22:12 | 51.89002 | 1.66708 | 13871 ft | 302 kts | 194° |
| 2026-05-07 22:13 | 51.86976 | 1.65920 | 13288 ft | 297 kts | 194° |
| 2026-05-07 22:13 | 51.84982 | 1.65146 | 12745 ft | 291 kts | 194° |
| 2026-05-07 22:13 | 51.83031 | 1.64389 | 12239 ft | 286 kts | 194° |
| 2026-05-07 22:13 | 51.81113 | 1.63645 | 11722 ft | 281 kts | 194° |
| 2026-05-07 22:14 | 51.79248 | 1.62922 | 11259 ft | 276 kts | 194° |
| 2026-05-07 22:14 | 51.77439 | 1.62009 | 10815 ft | 270 kts | 206° |
| 2026-05-07 22:14 | 51.75917 | 1.60307 | 10419 ft | 264 kts | 225° |
| 2026-05-07 22:14 | 51.74870 | 1.57953 | 10152 ft | 255 kts | 244° |
| 2026-05-07 22:15 | 51.74379 | 1.55262 | 9916 ft | 246 kts | 262° |
| 2026-05-07 22:15 | 51.74189 | 1.52531 | 9709 ft | 242 kts | 263° |
| 2026-05-07 22:15 | 51.74024 | 1.49849 | 9486 ft | 238 kts | 263° |
| 2026-05-07 22:15 | 51.73863 | 1.47212 | 9268 ft | 234 kts | 263° |
| 2026-05-07 22:16 | 51.73700 | 1.44612 | 9142 ft | 231 kts | 263° |
| 2026-05-07 22:16 | 51.73525 | 1.42041 | 9113 ft | 229 kts | 261° |
| 2026-05-07 22:16 | 51.73266 | 1.39494 | 9109 ft | 231 kts | 258° |
| 2026-05-07 22:16 | 51.72958 | 1.36946 | 9112 ft | 232 kts | 258° |
| 2026-05-07 22:17 | 51.72647 | 1.34380 | 9113 ft | 233 kts | 258° |
| 2026-05-07 22:17 | 51.72347 | 1.31802 | 9069 ft | 236 kts | 258° |
| 2026-05-07 22:17 | 51.72051 | 1.29176 | 8790 ft | 238 kts | 258° |
| 2026-05-07 22:17 | 51.71759 | 1.26570 | 8532 ft | 236 kts | 259° |
| 2026-05-07 22:18 | 51.71467 | 1.23978 | 8283 ft | 233 kts | 259° |
| 2026-05-07 22:18 | 51.70887 | 1.18885 | 7835 ft | 228 kts | 259° |
| 2026-05-07 22:18 | 51.70602 | 1.16393 | 7650 ft | 224 kts | 259° |
| 2026-05-07 22:19 | 51.70322 | 1.13940 | 7469 ft | 220 kts | 259° |
| 2026-05-07 22:19 | 51.70045 | 1.11523 | 7267 ft | 219 kts | 259° |
| 2026-05-07 22:19 | 51.69768 | 1.09113 | 7065 ft | 218 kts | 259° |
| 2026-05-07 22:19 | 51.69492 | 1.06715 | 6863 ft | 217 kts | 259° |
| 2026-05-07 22:20 | 51.69217 | 1.04327 | 6665 ft | 217 kts | 259° |
| 2026-05-07 22:20 | 51.68940 | 1.01930 | 6469 ft | 217 kts | 259° |
| 2026-05-07 22:20 | 51.68664 | 0.99541 | 6258 ft | 217 kts | 259° |
| 2026-05-07 22:20 | 51.68391 | 0.97184 | 6049 ft | 216 kts | 259° |
| 2026-05-07 22:21 | 51.68115 | 0.94810 | 5841 ft | 216 kts | 259° |
| 2026-05-07 22:21 | 51.67839 | 0.92437 | 5624 ft | 215 kts | 259° |
| 2026-05-07 22:21 | 51.67563 | 0.90071 | 5424 ft | 215 kts | 259° |
| 2026-05-07 22:21 | 51.67286 | 0.87702 | 5226 ft | 215 kts | 259° |
| 2026-05-07 22:22 | 51.67010 | 0.85340 | 5031 ft | 214 kts | 259° |
| 2026-05-07 22:22 | 51.66733 | 0.82981 | 4820 ft | 214 kts | 259° |
| 2026-05-07 22:22 | 51.66457 | 0.80624 | 4620 ft | 214 kts | 259° |
| 2026-05-07 22:22 | 51.66181 | 0.78276 | 4426 ft | 212 kts | 259° |
| 2026-05-07 22:23 | 51.65905 | 0.75933 | 4247 ft | 213 kts | 258° |
| 2026-05-07 22:23 | 51.65721 | 0.74381 | 4128 ft | 213 kts | 258° |
| 2026-05-07 22:23 | 51.65445 | 0.72039 | 3953 ft | 212 kts | 258° |
| 2026-05-07 22:23 | 51.65168 | 0.69705 | 3778 ft | 212 kts | 258° |
| 2026-05-07 22:24 | 51.64892 | 0.67377 | 3599 ft | 211 kts | 258° |
| 2026-05-07 22:24 | 51.64616 | 0.65054 | 3425 ft | 211 kts | 258° |
| 2026-05-07 22:24 | 51.64340 | 0.62739 | 3253 ft | 210 kts | 258° |
| 2026-05-07 22:24 | 51.64065 | 0.60430 | 3110 ft | 210 kts | 258° |
| 2026-05-07 22:25 | 51.63789 | 0.58119 | 2965 ft | 210 kts | 258° |
| 2026-05-07 22:25 | 51.63513 | 0.55814 | 2823 ft | 210 kts | 258° |
| 2026-05-07 22:25 | 51.63237 | 0.53515 | 2659 ft | 208 kts | 258° |
| 2026-05-07 22:25 | 51.62962 | 0.51226 | 2541 ft | 208 kts | 258° |
| 2026-05-07 22:26 | 51.62686 | 0.48935 | 2437 ft | 209 kts | 258° |
| 2026-05-07 22:26 | 51.62410 | 0.46637 | 2328 ft | 209 kts | 258° |
| 2026-05-07 22:26 | 51.62136 | 0.44372 | 2222 ft | 201 kts | 258° |
| 2026-05-07 22:26 | 51.61874 | 0.42199 | 2101 ft | 195 kts | 258° |
| 2026-05-07 22:27 | 51.61616 | 0.40073 | 2031 ft | 192 kts | 257° |
| 2026-05-07 22:27 | 51.61361 | 0.37974 | 2002 ft | 190 kts | 257° |
| 2026-05-07 22:27 | 51.61108 | 0.35891 | 2007 ft | 189 kts | 257° |
| 2026-05-07 22:27 | 51.60855 | 0.33819 | 2002 ft | 189 kts | 257° |
| 2026-05-07 22:28 | 51.60602 | 0.31744 | 2011 ft | 189 kts | 257° |
| 2026-05-07 22:28 | 51.60350 | 0.29677 | 2012 ft | 188 kts | 257° |
| 2026-05-07 22:28 | 51.60097 | 0.27608 | 2018 ft | 188 kts | 257° |
| 2026-05-07 22:28 | 51.59843 | 0.25532 | 2024 ft | 188 kts | 257° |
| 2026-05-07 22:29 | 51.59591 | 0.23473 | 2013 ft | 188 kts | 257° |
| 2026-05-07 22:29 | 51.59338 | 0.21413 | 2013 ft | 188 kts | 257° |
| 2026-05-07 22:29 | 51.59084 | 0.19351 | 2031 ft | 187 kts | 257° |
| 2026-05-07 22:29 | 51.58830 | 0.17290 | 2025 ft | 190 kts | 257° |
| 2026-05-07 22:30 | 51.58575 | 0.15223 | 2035 ft | 188 kts | 257° |
| 2026-05-07 22:30 | 51.58323 | 0.13184 | 2017 ft | 188 kts | 257° |
| 2026-05-07 22:30 | 51.58073 | 0.11163 | 2000 ft | 180 kts | 257° |
| 2026-05-07 22:30 | 51.57834 | 0.09225 | 2001 ft | 174 kts | 257° |
| 2026-05-07 22:31 | 51.57601 | 0.07350 | 1999 ft | 170 kts | 257° |
| 2026-05-07 22:31 | 51.57368 | 0.05491 | 2011 ft | 169 kts | 257° |
| 2026-05-07 22:31 | 51.57137 | 0.03643 | 2015 ft | 169 kts | 257° |
| 2026-05-07 22:31 | 51.56906 | 0.01796 | 2025 ft | 168 kts | 257° |
| 2026-05-07 22:32 | 51.56677 | -0.00038 | 2013 ft | 165 kts | 257° |
| 2026-05-07 22:32 | 51.56419 | -0.01775 | 1972 ft | 159 kts | 245° |
| 2026-05-07 22:32 | 51.55709 | -0.02981 | 1938 ft | 148 kts | 206° |
| 2026-05-07 22:32 | 51.54781 | -0.03454 | 1836 ft | 143 kts | 190° |
| 2026-05-07 22:33 | 51.53834 | -0.03760 | 1610 ft | 134 kts | 188° |
| 2026-05-07 22:33 | 51.52919 | -0.03976 | 1442 ft | 129 kts | 185° |
| 2026-05-07 22:33 | 51.52029 | -0.03796 | 1445 ft | 133 kts | 162° |
| 2026-05-07 22:33 | 51.51241 | -0.03129 | 1320 ft | 126 kts | 136° |
| 2026-05-07 22:34 | 51.50805 | -0.01878 | 1142 ft | 130 kts | 105° |
| 2026-05-07 22:34 | 51.50714 | -0.00457 | 985 ft | 130 kts | 92° |
| 2026-05-07 22:34 | 51.50676 | 0.00999 | 685 ft | 129 kts | 94° |
| 2026-05-07 22:34 | 51.50624 | 0.02394 | 443 ft | 129 kts | 93° |
| 2026-05-07 22:35 | 51.50584 | 0.03831 | 162 ft | 128 kts | 93° |
| 2026-05-07 22:35 | 51.50536 | 0.05181 | 29 ft | 95 kts | 94° |
| 2026-05-07 22:35 | 51.50516 | 0.05777 | 22 ft | 37 kts | 94° |
| 2026-05-07 22:35 | 51.50506 | 0.06092 | 26 ft | 25 kts | 90° |
| 2026-05-07 22:36 | 51.50496 | 0.06294 | 28 ft | 12 kts | 114° |
| 2026-05-07 22:36 | 51.50442 | 0.06346 | 27 ft | 0 kts | 178° |
| 2026-05-07 22:37 | 51.50422 | 0.06372 | 28 ft | 7 kts | 123° |
| 2026-05-07 22:37 | 51.50417 | 0.06406 | 28 ft | 0 kts | 100° |
| 2026-05-07 22:37 | 51.50416 | 0.06410 | 28 ft | 2 kts | 98° |
| 2026-05-07 22:37 | 51.50438 | 0.06505 | 28 ft | 12 kts | 49° |
| 2026-05-07 22:38 | 51.50491 | 0.06471 | 27 ft | 17 kts | 279° |
| 2026-05-07 22:38 | 51.50500 | 0.06248 | 27 ft | 24 kts | 273° |
| 2026-05-07 22:38 | 51.50510 | 0.05960 | 23 ft | 31 kts | 273° |
| 2026-05-07 22:38 | 51.50520 | 0.05616 | 23 ft | 30 kts | 271° |
| 2026-05-07 22:39 | 51.50517 | 0.05369 | 30 ft | 14 kts | 242° |
| 2026-05-07 22:39 | 51.50452 | 0.05259 | 28 ft | 8 kts | 226° |
| 2026-05-07 22:39 | 51.50438 | 0.05231 | 28 ft | 0 kts | 234° |
| 2026-05-07 22:40 | 51.50444 | 0.05186 | 28 ft | 7 kts | 279° |
| 2026-05-07 22:40 | 51.50422 | 0.05152 | 27 ft | 1 kts | 187° |
| 2026-05-07 22:40 | 51.50408 | 0.05151 | 26 ft | 0 kts | 181° |